Sadiqabad Weather



Sadiqabad's Current Weather

Temprature 35.81o clear sky

clear sky

Rain: 0 %

Min Temprature35.81o
Max Temprature35.81o
Humidity11
Wind Speed4.59 m/h
Sun Rise06:21:18
Sun Set17:47:52
Current Time: 18-Oct-2019 15:50:18
Lat/Lon: 28.31, 70.13




Sadiqabad's Geo Location



Sadiqabad's Weather Forecast

Time Overall Temp Min Temp Max Temp Humidity Wind Speed Rain
18-Oct-2019 (Fri)
17:00:00 clear sky 33.840 33.840 35.810 11 4.59 m/h 0 %
20:00:00 clear sky 27.860 27.860 29.340 25 5.61 m/h 0 %
23:00:00 clear sky 26.410 26.410 27.398 33 6.7 m/h 0 %
19-Oct-2019 (Sat)
02:00:00 clear sky 25.580 25.580 26.068 36 8.17 m/h 0 %
05:00:00 clear sky 23.743 23.743 23.743 41 6.69 m/h 0 %
08:00:00 clear sky 26.641 26.641 26.641 35 7.26 m/h 0 %
11:00:00 clear sky 33.380 33.380 33.380 22 7.44 m/h 0 %
14:00:00 clear sky 36.876 36.876 36.876 15 4.9 m/h 0 %
17:00:00 clear sky 35.322 35.322 35.322 13 3.99 m/h 0 %
20:00:00 clear sky 27.948 27.948 27.948 23 2.44 m/h 0 %
23:00:00 clear sky 26.597 26.597 26.597 25 3.21 m/h 0 %
20-Oct-2019 (Sun)
02:00:00 few clouds 25.207 25.207 25.207 32 3.39 m/h 0 %
05:00:00 scattered clouds 24.234 24.234 24.234 34 3.69 m/h 0 %
08:00:00 clear sky 27.342 27.342 27.342 28 4.6 m/h 0 %
11:00:00 clear sky 35.360 35.360 35.360 15 3.79 m/h 0 %
14:00:00 clear sky 37.202 37.202 37.202 10 2.44 m/h 0 %
17:00:00 clear sky 35.198 35.198 35.198 11 5.07 m/h 0 %
20:00:00 clear sky 27.232 27.232 27.232 19 1.41 m/h 0 %
23:00:00 clear sky 27.497 27.497 27.497 18 1.99 m/h 0 %
21-Oct-2019 (Mon)
02:00:00 clear sky 25.780 25.780 25.780 19 1.37 m/h 0 %
05:00:00 clear sky 23.921 23.921 23.921 23 0.98 m/h 0 %
08:00:00 clear sky 30.279 30.279 30.279 15 0.53 m/h 0 %
11:00:00 clear sky 36.427 36.427 36.427 10 3.34 m/h 0 %
14:00:00 clear sky 37.835 37.835 37.835 9 3.51 m/h 0 %
17:00:00 clear sky 35.414 35.414 35.414 10 3.69 m/h 0 %
20:00:00 clear sky 28.274 28.274 28.274 15 2.06 m/h 0 %
23:00:00 clear sky 27.240 27.240 27.240 17 2.3 m/h 0 %
22-Oct-2019 (Tue)
02:00:00 clear sky 26.226 26.226 26.226 19 2.68 m/h 0 %
05:00:00 clear sky 25.379 25.379 25.379 20 3.14 m/h 0 %
08:00:00 clear sky 29.142 29.142 29.142 17 2.64 m/h 0 %
11:00:00 clear sky 36.169 36.169 36.169 14 4.2 m/h 0 %
14:00:00 clear sky 38.259 38.259 38.259 10 3.61 m/h 0 %
17:00:00 clear sky 36.122 36.122 36.122 11 2 m/h 0 %
20:00:00 clear sky 27.350 27.350 27.350 17 1.02 m/h 0 %
23:00:00 clear sky 27.829 27.829 27.829 15 3.23 m/h 0 %
23-Oct-2019 (Wed)
02:00:00 clear sky 26.446 26.446 26.446 18 3.39 m/h 0 %
05:00:00 clear sky 24.627 24.627 24.627 26 3.41 m/h 0 %
08:00:00 clear sky 27.869 27.869 27.869 25 5.31 m/h 0 %
11:00:00 clear sky 35.995 35.995 35.995 10 5.61 m/h 0 %
14:00:00 clear sky 37.259 37.259 37.259 8 7.41 m/h 0 %


Sadiqabad's Tourist Spots

Historical Places in Sadiqabad

Famous Cities (61)